sensor_id;sensor_type;location;lat;lon;timestamp;temperature;humidity
64843;DHT22;51310;52.198;5.422;2023-03-04T00:01:47;4.90;99.90
64843;DHT22;51310;52.198;5.422;2023-03-04T00:04:15;4.90;99.90
64843;DHT22;51310;52.198;5.422;2023-03-04T00:06:41;4.90;99.90
64843;DHT22;51310;52.198;5.422;2023-03-04T00:09:07;4.90;99.90
64843;DHT22;51310;52.198;5.422;2023-03-04T00:11:33;4.90;99.90
64843;DHT22;51310;52.198;5.422;2023-03-04T00:13:59;5.00;99.90
64843;DHT22;51310;52.198;5.422;2023-03-04T00:16:25;4.90;99.90
64843;DHT22;51310;52.198;5.422;2023-03-04T00:18:53;4.90;99.90
64843;DHT22;51310;52.198;5.422;2023-03-04T00:21:19;4.90;99.90
64843;DHT22;51310;52.198;5.422;2023-03-04T00:23:45;4.90;99.90
64843;DHT22;51310;52.198;5.422;2023-03-04T00:26:10;4.90;99.90
64843;DHT22;51310;52.198;5.422;2023-03-04T00:28:38;4.90;99.90
64843;DHT22;51310;52.198;5.422;2023-03-04T00:31:05;4.90;99.90
64843;DHT22;51310;52.198;5.422;2023-03-04T00:33:31;4.90;99.90
64843;DHT22;51310;52.198;5.422;2023-03-04T00:35:57;4.90;99.90
64843;DHT22;51310;52.198;5.422;2023-03-04T00:38:23;4.90;99.90
64843;DHT22;51310;52.198;5.422;2023-03-04T00:40:49;4.90;99.90
64843;DHT22;51310;52.198;5.422;2023-03-04T00:43:14;4.90;99.90
64843;DHT22;51310;52.198;5.422;2023-03-04T00:45:40;4.90;99.90
64843;DHT22;51310;52.198;5.422;2023-03-04T00:48:06;4.90;99.90
64843;DHT22;51310;52.198;5.422;2023-03-04T00:50:32;4.90;99.90
64843;DHT22;51310;52.198;5.422;2023-03-04T00:52:57;4.90;99.90
64843;DHT22;51310;52.198;5.422;2023-03-04T00:55:23;4.90;99.90
64843;DHT22;51310;52.198;5.422;2023-03-04T00:57:49;4.80;99.90
64843;DHT22;51310;52.198;5.422;2023-03-04T01:00:15;4.90;99.90
64843;DHT22;51310;52.198;5.422;2023-03-04T01:02:41;4.90;99.90
64843;DHT22;51310;52.198;5.422;2023-03-04T01:05:10;4.90;99.90
64843;DHT22;51310;52.198;5.422;2023-03-04T01:07:36;4.90;99.90
64843;DHT22;51310;52.198;5.422;2023-03-04T01:10:04;4.90;99.90
64843;DHT22;51310;52.198;5.422;2023-03-04T01:12:31;4.90;99.90
64843;DHT22;51310;52.198;5.422;2023-03-04T01:14:56;4.90;99.90
64843;DHT22;51310;52.198;5.422;2023-03-04T01:17:22;4.90;99.90
64843;DHT22;51310;52.198;5.422;2023-03-04T01:19:48;4.90;99.90
64843;DHT22;51310;52.198;5.422;2023-03-04T01:22:13;4.90;99.90
64843;DHT22;51310;52.198;5.422;2023-03-04T01:24:41;4.90;99.90
64843;DHT22;51310;52.198;5.422;2023-03-04T01:27:07;4.80;99.90
64843;DHT22;51310;52.198;5.422;2023-03-04T01:29:33;4.80;99.90
64843;DHT22;51310;52.198;5.422;2023-03-04T01:31:58;4.70;99.90
64843;DHT22;51310;52.198;5.422;2023-03-04T01:34:24;4.80;99.90
64843;DHT22;51310;52.198;5.422;2023-03-04T01:36:50;4.80;99.90
64843;DHT22;51310;52.198;5.422;2023-03-04T01:39:15;4.80;99.90
64843;DHT22;51310;52.198;5.422;2023-03-04T01:41:41;4.80;99.90
64843;DHT22;51310;52.198;5.422;2023-03-04T01:44:08;4.80;99.90
64843;DHT22;51310;52.198;5.422;2023-03-04T01:46:35;4.80;99.90
64843;DHT22;51310;52.198;5.422;2023-03-04T01:49:02;4.90;99.90
64843;DHT22;51310;52.198;5.422;2023-03-04T01:51:28;4.90;99.90
64843;DHT22;51310;52.198;5.422;2023-03-04T01:53:54;4.90;99.90
64843;DHT22;51310;52.198;5.422;2023-03-04T01:56:37;4.90;99.90
64843;DHT22;51310;52.198;5.422;2023-03-04T01:59:22;4.90;99.90
64843;DHT22;51310;52.198;5.422;2023-03-04T02:01:59;4.90;99.90
64843;DHT22;51310;52.198;5.422;2023-03-04T02:04:30;4.90;99.90
64843;DHT22;51310;52.198;5.422;2023-03-04T02:07:00;4.80;99.90
64843;DHT22;51310;52.198;5.422;2023-03-04T02:09:27;4.80;99.90
64843;DHT22;51310;52.198;5.422;2023-03-04T02:11:54;4.80;99.90
64843;DHT22;51310;52.198;5.422;2023-03-04T02:14:21;4.80;99.90
64843;DHT22;51310;52.198;5.422;2023-03-04T02:16:47;4.70;99.90
64843;DHT22;51310;52.198;5.422;2023-03-04T02:22:13;4.80;99.90
64843;DHT22;51310;52.198;5.422;2023-03-04T02:24:48;4.80;99.90
64843;DHT22;51310;52.198;5.422;2023-03-04T02:27:18;4.80;99.90
64843;DHT22;51310;52.198;5.422;2023-03-04T02:29:44;4.80;99.90
64843;DHT22;51310;52.198;5.422;2023-03-04T02:32:12;4.80;99.90
64843;DHT22;51310;52.198;5.422;2023-03-04T02:34:48;4.70;99.90
64843;DHT22;51310;52.198;5.422;2023-03-04T02:37:16;4.70;99.90
64843;DHT22;51310;52.198;5.422;2023-03-04T02:39:46;4.70;99.90
64843;DHT22;51310;52.198;5.422;2023-03-04T02:42:13;4.70;99.90
64843;DHT22;51310;52.198;5.422;2023-03-04T02:44:41;4.70;99.90
64843;DHT22;51310;52.198;5.422;2023-03-04T02:47:11;4.70;99.90
64843;DHT22;51310;52.198;5.422;2023-03-04T02:49:40;4.70;99.90
64843;DHT22;51310;52.198;5.422;2023-03-04T02:52:32;4.70;99.90
64843;DHT22;51310;52.198;5.422;2023-03-04T02:54:57;4.70;99.90
64843;DHT22;51310;52.198;5.422;2023-03-04T02:57:23;4.70;99.90
64843;DHT22;51310;52.198;5.422;2023-03-04T02:59:49;4.70;99.90
64843;DHT22;51310;52.198;5.422;2023-03-04T03:02:14;4.70;99.90
64843;DHT22;51310;52.198;5.422;2023-03-04T03:04:40;4.70;99.90
64843;DHT22;51310;52.198;5.422;2023-03-04T03:07:06;4.70;99.90
64843;DHT22;51310;52.198;5.422;2023-03-04T03:09:32;4.70;99.90
64843;DHT22;51310;52.198;5.422;2023-03-04T03:11:58;4.70;99.90
64843;DHT22;51310;52.198;5.422;2023-03-04T03:14:23;4.70;99.90
64843;DHT22;51310;52.198;5.422;2023-03-04T03:16:49;4.70;99.90
64843;DHT22;51310;52.198;5.422;2023-03-04T03:19:15;4.70;99.90
64843;DHT22;51310;52.198;5.422;2023-03-04T03:21:40;4.70;99.90
64843;DHT22;51310;52.198;5.422;2023-03-04T03:24:06;4.70;99.90
64843;DHT22;51310;52.198;5.422;2023-03-04T03:26:32;4.70;99.90
64843;DHT22;51310;52.198;5.422;2023-03-04T03:28:58;4.70;99.90
64843;DHT22;51310;52.198;5.422;2023-03-04T03:31:24;4.70;99.90
64843;DHT22;51310;52.198;5.422;2023-03-04T03:33:49;4.70;99.90
64843;DHT22;51310;52.198;5.422;2023-03-04T03:36:15;4.70;99.90
64843;DHT22;51310;52.198;5.422;2023-03-04T03:38:41;4.70;99.90
64843;DHT22;51310;52.198;5.422;2023-03-04T03:41:06;4.70;99.90
64843;DHT22;51310;52.198;5.422;2023-03-04T03:43:32;4.70;99.90
64843;DHT22;51310;52.198;5.422;2023-03-04T03:45:58;4.70;99.90
64843;DHT22;51310;52.198;5.422;2023-03-04T03:48:24;4.70;99.90
64843;DHT22;51310;52.198;5.422;2023-03-04T03:50:49;4.70;99.90
64843;DHT22;51310;52.198;5.422;2023-03-04T03:53:15;4.70;99.90
64843;DHT22;51310;52.198;5.422;2023-03-04T03:55:41;4.70;99.90
64843;DHT22;51310;52.198;5.422;2023-03-04T03:58:06;4.70;99.90
64843;DHT22;51310;52.198;5.422;2023-03-04T04:00:32;4.70;99.90
64843;DHT22;51310;52.198;5.422;2023-03-04T04:02:59;4.70;99.90
64843;DHT22;51310;52.198;5.422;2023-03-04T04:05:25;4.50;99.90
64843;DHT22;51310;52.198;5.422;2023-03-04T04:07:51;4.50;99.90
64843;DHT22;51310;52.198;5.422;2023-03-04T04:10:17;4.50;99.90
64843;DHT22;51310;52.198;5.422;2023-03-04T04:12:43;4.50;99.90
64843;DHT22;51310;52.198;5.422;2023-03-04T04:15:11;4.60;99.90
64843;DHT22;51310;52.198;5.422;2023-03-04T04:17:37;4.60;99.90
64843;DHT22;51310;52.198;5.422;2023-03-04T04:20:04;4.50;99.90
64843;DHT22;51310;52.198;5.422;2023-03-04T04:22:31;4.50;99.90
64843;DHT22;51310;52.198;5.422;2023-03-04T04:24:57;4.60;99.90
64843;DHT22;51310;52.198;5.422;2023-03-04T04:27:23;4.60;99.90
64843;DHT22;51310;52.198;5.422;2023-03-04T04:29:48;4.60;99.90
64843;DHT22;51310;52.198;5.422;2023-03-04T04:32:14;4.50;99.90
64843;DHT22;51310;52.198;5.422;2023-03-04T04:34:40;4.50;99.90
64843;DHT22;51310;52.198;5.422;2023-03-04T04:37:05;4.50;99.90
64843;DHT22;51310;52.198;5.422;2023-03-04T04:39:31;4.50;99.90
64843;DHT22;51310;52.198;5.422;2023-03-04T04:41:57;4.60;99.90
64843;DHT22;51310;52.198;5.422;2023-03-04T04:44:23;4.50;99.90
64843;DHT22;51310;52.198;5.422;2023-03-04T04:46:48;4.60;99.90
64843;DHT22;51310;52.198;5.422;2023-03-04T04:49:14;4.50;99.90
64843;DHT22;51310;52.198;5.422;2023-03-04T04:51:40;4.50;99.90
64843;DHT22;51310;52.198;5.422;2023-03-04T04:54:06;4.50;99.90
64843;DHT22;51310;52.198;5.422;2023-03-04T04:56:32;4.50;99.90
64843;DHT22;51310;52.198;5.422;2023-03-04T04:59:01;4.50;99.90
64843;DHT22;51310;52.198;5.422;2023-03-04T05:01:29;4.50;99.90
64843;DHT22;51310;52.198;5.422;2023-03-04T05:03:55;4.60;99.90
64843;DHT22;51310;52.198;5.422;2023-03-04T05:06:22;4.60;99.90
64843;DHT22;51310;52.198;5.422;2023-03-04T05:08:50;4.50;99.90
64843;DHT22;51310;52.198;5.422;2023-03-04T05:11:17;4.60;99.90
64843;DHT22;51310;52.198;5.422;2023-03-04T05:13:44;4.60;99.90
64843;DHT22;51310;52.198;5.422;2023-03-04T05:16:11;4.60;99.90
64843;DHT22;51310;52.198;5.422;2023-03-04T05:18:37;4.70;99.90
64843;DHT22;51310;52.198;5.422;2023-03-04T05:21:04;4.60;99.90
64843;DHT22;51310;52.198;5.422;2023-03-04T05:23:38;4.70;99.90
64843;DHT22;51310;52.198;5.422;2023-03-04T05:26:07;4.70;99.90
64843;DHT22;51310;52.198;5.422;2023-03-04T05:28:35;4.70;99.90
64843;DHT22;51310;52.198;5.422;2023-03-04T05:31:01;4.60;99.90
64843;DHT22;51310;52.198;5.422;2023-03-04T05:33:27;4.70;99.90
64843;DHT22;51310;52.198;5.422;2023-03-04T05:35:53;4.70;99.90
64843;DHT22;51310;52.198;5.422;2023-03-04T05:38:20;4.70;99.90
64843;DHT22;51310;52.198;5.422;2023-03-04T05:40:46;4.70;99.90
64843;DHT22;51310;52.198;5.422;2023-03-04T05:43:13;4.70;99.90
64843;DHT22;51310;52.198;5.422;2023-03-04T05:45:39;4.70;99.90
64843;DHT22;51310;52.198;5.422;2023-03-04T05:48:06;4.60;99.90
64843;DHT22;51310;52.198;5.422;2023-03-04T05:50:33;4.70;99.90
64843;DHT22;51310;52.198;5.422;2023-03-04T05:52:59;4.60;99.90
64843;DHT22;51310;52.198;5.422;2023-03-04T05:55:25;4.70;99.90
64843;DHT22;51310;52.198;5.422;2023-03-04T05:57:53;4.60;99.90
64843;DHT22;51310;52.198;5.422;2023-03-04T06:00:19;4.60;99.90
64843;DHT22;51310;52.198;5.422;2023-03-04T06:02:45;4.50;99.90
64843;DHT22;51310;52.198;5.422;2023-03-04T06:05:13;4.50;99.90
64843;DHT22;51310;52.198;5.422;2023-03-04T06:07:40;4.50;99.90
64843;DHT22;51310;52.198;5.422;2023-03-04T06:10:10;4.50;99.90
64843;DHT22;51310;52.198;5.422;2023-03-04T06:12:37;4.50;99.90
64843;DHT22;51310;52.198;5.422;2023-03-04T06:15:04;4.40;99.90
64843;DHT22;51310;52.198;5.422;2023-03-04T06:17:31;4.40;99.90
64843;DHT22;51310;52.198;5.422;2023-03-04T06:19:58;4.40;99.90
64843;DHT22;51310;52.198;5.422;2023-03-04T06:22:23;4.40;99.90
64843;DHT22;51310;52.198;5.422;2023-03-04T06:24:49;4.40;99.90
64843;DHT22;51310;52.198;5.422;2023-03-04T06:27:15;4.40;99.90
64843;DHT22;51310;52.198;5.422;2023-03-04T06:29:41;4.40;99.90
64843;DHT22;51310;52.198;5.422;2023-03-04T06:32:07;4.40;99.90
64843;DHT22;51310;52.198;5.422;2023-03-04T06:34:32;4.40;99.90
64843;DHT22;51310;52.198;5.422;2023-03-04T06:36:58;4.40;99.90
64843;DHT22;51310;52.198;5.422;2023-03-04T06:39:24;4.50;99.90
64843;DHT22;51310;52.198;5.422;2023-03-04T06:41:50;4.50;99.90
64843;DHT22;51310;52.198;5.422;2023-03-04T06:44:16;4.40;99.90
64843;DHT22;51310;52.198;5.422;2023-03-04T06:46:42;4.40;99.90
64843;DHT22;51310;52.198;5.422;2023-03-04T06:49:08;4.40;99.90
64843;DHT22;51310;52.198;5.422;2023-03-04T06:51:34;4.40;99.90
64843;DHT22;51310;52.198;5.422;2023-03-04T06:54:00;4.40;99.90
64843;DHT22;51310;52.198;5.422;2023-03-04T06:56:26;4.40;99.90
64843;DHT22;51310;52.198;5.422;2023-03-04T06:58:52;4.40;99.90
64843;DHT22;51310;52.198;5.422;2023-03-04T07:01:23;4.40;99.90
64843;DHT22;51310;52.198;5.422;2023-03-04T07:03:52;4.40;99.90
64843;DHT22;51310;52.198;5.422;2023-03-04T07:06:21;4.50;99.90
64843;DHT22;51310;52.198;5.422;2023-03-04T07:08:49;4.50;99.90
64843;DHT22;51310;52.198;5.422;2023-03-04T07:11:16;4.40;99.90
64843;DHT22;51310;52.198;5.422;2023-03-04T07:13:43;4.30;99.90
64843;DHT22;51310;52.198;5.422;2023-03-04T07:16:15;4.30;99.90
64843;DHT22;51310;52.198;5.422;2023-03-04T07:18:43;4.30;99.90
64843;DHT22;51310;52.198;5.422;2023-03-04T07:21:10;4.20;99.90
64843;DHT22;51310;52.198;5.422;2023-03-04T07:23:38;4.30;99.90
64843;DHT22;51310;52.198;5.422;2023-03-04T07:26:04;4.20;99.90
64843;DHT22;51310;52.198;5.422;2023-03-04T07:28:30;4.30;99.90
64843;DHT22;51310;52.198;5.422;2023-03-04T07:30:56;4.40;99.90
64843;DHT22;51310;52.198;5.422;2023-03-04T07:33:31;4.50;99.90
64843;DHT22;51310;52.198;5.422;2023-03-04T07:35:58;4.50;99.90
64843;DHT22;51310;52.198;5.422;2023-03-04T07:38:24;4.60;99.90
64843;DHT22;51310;52.198;5.422;2023-03-04T07:40:57;4.70;99.90
64843;DHT22;51310;52.198;5.422;2023-03-04T07:43:23;4.70;99.90
64843;DHT22;51310;52.198;5.422;2023-03-04T07:45:49;4.70;99.90
64843;DHT22;51310;52.198;5.422;2023-03-04T07:48:14;4.70;99.90
64843;DHT22;51310;52.198;5.422;2023-03-04T07:50:40;4.80;99.90
64843;DHT22;51310;52.198;5.422;2023-03-04T07:53:06;4.90;99.90
64843;DHT22;51310;52.198;5.422;2023-03-04T07:55:31;4.90;99.90
64843;DHT22;51310;52.198;5.422;2023-03-04T07:57:57;5.00;99.90
64843;DHT22;51310;52.198;5.422;2023-03-04T08:00:23;5.00;99.90
64843;DHT22;51310;52.198;5.422;2023-03-04T08:02:48;5.00;99.90
64843;DHT22;51310;52.198;5.422;2023-03-04T08:05:14;5.10;99.90
64843;DHT22;51310;52.198;5.422;2023-03-04T08:07:40;5.10;99.90
64843;DHT22;51310;52.198;5.422;2023-03-04T08:10:06;5.20;99.90
64843;DHT22;51310;52.198;5.422;2023-03-04T08:12:34;5.20;99.90
64843;DHT22;51310;52.198;5.422;2023-03-04T08:15:00;5.30;99.90
64843;DHT22;51310;52.198;5.422;2023-03-04T08:17:27;5.30;99.90
64843;DHT22;51310;52.198;5.422;2023-03-04T08:19:54;5.30;99.90
64843;DHT22;51310;52.198;5.422;2023-03-04T08:22:20;5.10;99.90
64843;DHT22;51310;52.198;5.422;2023-03-04T08:24:46;5.10;99.90
64843;DHT22;51310;52.198;5.422;2023-03-04T08:27:11;5.20;99.90
64843;DHT22;51310;52.198;5.422;2023-03-04T08:29:37;5.30;99.90
64843;DHT22;51310;52.198;5.422;2023-03-04T08:32:03;5.30;99.90
64843;DHT22;51310;52.198;5.422;2023-03-04T08:34:29;5.30;99.90
64843;DHT22;51310;52.198;5.422;2023-03-04T08:36:55;5.40;99.90
64843;DHT22;51310;52.198;5.422;2023-03-04T08:39:21;5.50;99.90
64843;DHT22;51310;52.198;5.422;2023-03-04T08:41:48;5.50;99.90
64843;DHT22;51310;52.198;5.422;2023-03-04T08:44:14;5.50;99.90
64843;DHT22;51310;52.198;5.422;2023-03-04T08:46:41;5.50;99.90
64843;DHT22;51310;52.198;5.422;2023-03-04T08:49:09;5.30;99.90
64843;DHT22;51310;52.198;5.422;2023-03-04T08:51:36;5.30;99.90
64843;DHT22;51310;52.198;5.422;2023-03-04T08:54:03;5.30;99.90
64843;DHT22;51310;52.198;5.422;2023-03-04T08:56:29;5.30;99.90
64843;DHT22;51310;52.198;5.422;2023-03-04T08:58:55;5.30;99.90
64843;DHT22;51310;52.198;5.422;2023-03-04T09:01:21;5.30;99.90
64843;DHT22;51310;52.198;5.422;2023-03-04T09:03:47;5.30;99.90
64843;DHT22;51310;52.198;5.422;2023-03-04T09:06:15;5.30;99.90
64843;DHT22;51310;52.198;5.422;2023-03-04T09:08:42;5.50;99.90
64843;DHT22;51310;52.198;5.422;2023-03-04T09:11:08;5.50;99.90
64843;DHT22;51310;52.198;5.422;2023-03-04T09:13:35;5.60;99.90
64843;DHT22;51310;52.198;5.422;2023-03-04T09:16:01;5.70;99.90
64843;DHT22;51310;52.198;5.422;2023-03-04T09:18:28;5.70;99.90
64843;DHT22;51310;52.198;5.422;2023-03-04T09:20:54;5.80;99.90
64843;DHT22;51310;52.198;5.422;2023-03-04T09:23:20;5.90;99.90
64843;DHT22;51310;52.198;5.422;2023-03-04T09:25:46;6.00;99.90
64843;DHT22;51310;52.198;5.422;2023-03-04T09:28:14;6.00;99.90
64843;DHT22;51310;52.198;5.422;2023-03-04T09:30:41;6.10;99.90
64843;DHT22;51310;52.198;5.422;2023-03-04T09:33:08;6.10;99.90
64843;DHT22;51310;52.198;5.422;2023-03-04T09:35:34;6.10;99.90
64843;DHT22;51310;52.198;5.422;2023-03-04T09:38:00;6.20;99.90
64843;DHT22;51310;52.198;5.422;2023-03-04T09:40:46;6.20;99.90
64843;DHT22;51310;52.198;5.422;2023-03-04T09:43:24;6.20;99.90
64843;DHT22;51310;52.198;5.422;2023-03-04T09:45:56;6.30;99.90
64843;DHT22;51310;52.198;5.422;2023-03-04T09:48:28;6.40;99.90
64843;DHT22;51310;52.198;5.422;2023-03-04T09:51:21;6.50;99.90
64843;DHT22;51310;52.198;5.422;2023-03-04T09:53:58;6.50;99.90
64843;DHT22;51310;52.198;5.422;2023-03-04T09:56:34;6.60;99.90
64843;DHT22;51310;52.198;5.422;2023-03-04T10:01:59;6.90;99.90
64843;DHT22;51310;52.198;5.422;2023-03-04T10:04:46;6.90;99.90
64843;DHT22;51310;52.198;5.422;2023-03-04T10:07:22;6.90;99.90
64843;DHT22;51310;52.198;5.422;2023-03-04T10:10:02;6.70;99.90
64843;DHT22;51310;52.198;5.422;2023-03-04T10:12:39;6.50;99.90
64843;DHT22;51310;52.198;5.422;2023-03-04T10:18:29;6.40;99.90
64843;DHT22;51310;52.198;5.422;2023-03-04T10:21:09;6.60;99.90
64843;DHT22;51310;52.198;5.422;2023-03-04T10:23:48;6.70;99.90
64843;DHT22;51310;52.198;5.422;2023-03-04T10:26:18;6.80;99.90
64843;DHT22;51310;52.198;5.422;2023-03-04T10:28:46;6.90;99.90
64843;DHT22;51310;52.198;5.422;2023-03-04T10:34:04;7.00;99.90
64843;DHT22;51310;52.198;5.422;2023-03-04T10:39:11;7.00;99.90
64843;DHT22;51310;52.198;5.422;2023-03-04T10:42:00;7.00;99.90
64843;DHT22;51310;52.198;5.422;2023-03-04T10:44:32;7.00;99.90
64843;DHT22;51310;52.198;5.422;2023-03-04T10:47:00;7.00;99.90
64843;DHT22;51310;52.198;5.422;2023-03-04T10:49:27;7.20;99.90
64843;DHT22;51310;52.198;5.422;2023-03-04T10:52:02;7.40;99.90
64843;DHT22;51310;52.198;5.422;2023-03-04T10:54:52;7.50;99.90
64843;DHT22;51310;52.198;5.422;2023-03-04T10:57:23;7.50;99.90
64843;DHT22;51310;52.198;5.422;2023-03-04T10:59:58;7.50;99.90
64843;DHT22;51310;52.198;5.422;2023-03-04T11:02:33;7.20;99.90
64843;DHT22;51310;52.198;5.422;2023-03-04T11:07:50;6.90;99.90
64843;DHT22;51310;52.198;5.422;2023-03-04T11:10:23;6.60;99.90
64843;DHT22;51310;52.198;5.422;2023-03-04T11:13:01;6.40;99.90
64843;DHT22;51310;52.198;5.422;2023-03-04T11:18:16;6.00;99.90
64843;DHT22;51310;52.198;5.422;2023-03-04T11:20:49;5.90;99.90
64843;DHT22;51310;52.198;5.422;2023-03-04T11:23:17;5.80;99.90
64843;DHT22;51310;52.198;5.422;2023-03-04T11:26:03;5.70;99.90
64843;DHT22;51310;52.198;5.422;2023-03-04T11:28:45;5.70;99.90
64843;DHT22;51310;52.198;5.422;2023-03-04T11:31:29;5.70;99.90
64843;DHT22;51310;52.198;5.422;2023-03-04T11:34:03;5.70;99.90
64843;DHT22;51310;52.198;5.422;2023-03-04T11:39:35;5.70;99.90
64843;DHT22;51310;52.198;5.422;2023-03-04T11:42:22;5.80;99.90
64843;DHT22;51310;52.198;5.422;2023-03-04T11:44:59;5.80;99.90
64843;DHT22;51310;52.198;5.422;2023-03-04T11:47:41;6.00;99.90
64843;DHT22;51310;52.198;5.422;2023-03-04T11:50:59;6.20;99.90
64843;DHT22;51310;52.198;5.422;2023-03-04T11:56:32;6.90;99.90
64843;DHT22;51310;52.198;5.422;2023-03-04T12:02:12;7.00;99.90
64843;DHT22;51310;52.198;5.422;2023-03-04T12:21:55;7.20;99.90
64843;DHT22;51310;52.198;5.422;2023-03-04T12:28:00;7.00;99.90
64843;DHT22;51310;52.198;5.422;2023-03-04T12:30:58;7.10;99.90
64843;DHT22;51310;52.198;5.422;2023-03-04T12:34:26;7.20;99.90
64843;DHT22;51310;52.198;5.422;2023-03-04T12:37:35;7.20;99.90
64843;DHT22;51310;52.198;5.422;2023-03-04T12:40:37;7.20;99.90
64843;DHT22;51310;52.198;5.422;2023-03-04T12:43:12;7.20;99.90
64843;DHT22;51310;52.198;5.422;2023-03-04T12:46:19;7.40;99.90
64843;DHT22;51310;52.198;5.422;2023-03-04T12:51:32;7.60;99.90
64843;DHT22;51310;52.198;5.422;2023-03-04T12:54:22;7.60;99.90
64843;DHT22;51310;52.198;5.422;2023-03-04T12:57:03;7.50;99.90
64843;DHT22;51310;52.198;5.422;2023-03-04T13:02:26;7.10;99.90
64843;DHT22;51310;52.198;5.422;2023-03-04T13:14:07;6.50;99.90
64843;DHT22;51310;52.198;5.422;2023-03-04T13:16:56;6.40;99.90
64843;DHT22;51310;52.198;5.422;2023-03-04T13:41:23;6.70;99.90
64843;DHT22;51310;52.198;5.422;2023-03-04T13:44:32;6.80;99.90
64843;DHT22;51310;52.198;5.422;2023-03-04T13:47:33;6.80;99.90
64843;DHT22;51310;52.198;5.422;2023-03-04T13:50:23;6.80;99.90
64843;DHT22;51310;52.198;5.422;2023-03-04T13:52:57;6.80;99.90
64843;DHT22;51310;52.198;5.422;2023-03-04T13:55:37;6.80;99.90
64843;DHT22;51310;52.198;5.422;2023-03-04T13:58:21;6.70;99.90
64843;DHT22;51310;52.198;5.422;2023-03-04T14:00:52;6.70;99.90
64843;DHT22;51310;52.198;5.422;2023-03-04T14:03:27;6.70;99.90
64843;DHT22;51310;52.198;5.422;2023-03-04T14:06:15;6.80;99.90
64843;DHT22;51310;52.198;5.422;2023-03-04T14:08:47;6.80;99.90
64843;DHT22;51310;52.198;5.422;2023-03-04T14:11:37;6.70;99.90
64843;DHT22;51310;52.198;5.422;2023-03-04T14:14:10;6.70;99.90
64843;DHT22;51310;52.198;5.422;2023-03-04T14:16:51;6.60;99.90
64843;DHT22;51310;52.198;5.422;2023-03-04T14:19:37;6.70;99.90
64843;DHT22;51310;52.198;5.422;2023-03-04T14:22:31;6.60;99.90
64843;DHT22;51310;52.198;5.422;2023-03-04T14:25:14;6.60;99.90
64843;DHT22;51310;52.198;5.422;2023-03-04T14:27:46;6.60;99.90
64843;DHT22;51310;52.198;5.422;2023-03-04T14:30:27;6.70;99.90
64843;DHT22;51310;52.198;5.422;2023-03-04T14:32:55;6.70;99.90
64843;DHT22;51310;52.198;5.422;2023-03-04T14:35:26;6.80;99.90
64843;DHT22;51310;52.198;5.422;2023-03-04T14:40:53;6.80;99.90
64843;DHT22;51310;52.198;5.422;2023-03-04T14:43:23;6.80;99.90
64843;DHT22;51310;52.198;5.422;2023-03-04T14:45:54;6.80;99.90
64843;DHT22;51310;52.198;5.422;2023-03-04T14:48:31;6.80;99.90
64843;DHT22;51310;52.198;5.422;2023-03-04T14:50:59;6.80;99.90
64843;DHT22;51310;52.198;5.422;2023-03-04T14:53:30;6.80;99.90
64843;DHT22;51310;52.198;5.422;2023-03-04T14:56:01;6.70;99.90
64843;DHT22;51310;52.198;5.422;2023-03-04T14:58:34;6.60;99.90
64843;DHT22;51310;52.198;5.422;2023-03-04T15:03:41;6.40;99.90
64843;DHT22;51310;52.198;5.422;2023-03-04T15:06:22;6.30;99.90
64843;DHT22;51310;52.198;5.422;2023-03-04T15:09:19;6.30;99.90
64843;DHT22;51310;52.198;5.422;2023-03-04T15:14:47;6.40;99.90
64843;DHT22;51310;52.198;5.422;2023-03-04T15:22:36;6.50;99.90
64843;DHT22;51310;52.198;5.422;2023-03-04T15:25:22;6.50;99.90
64843;DHT22;51310;52.198;5.422;2023-03-04T15:27:48;6.50;99.90
64843;DHT22;51310;52.198;5.422;2023-03-04T15:30:22;6.60;99.90
64843;DHT22;51310;52.198;5.422;2023-03-04T15:32:54;6.60;99.90
64843;DHT22;51310;52.198;5.422;2023-03-04T15:35:22;6.60;99.90
64843;DHT22;51310;52.198;5.422;2023-03-04T15:37:50;6.60;99.90
64843;DHT22;51310;52.198;5.422;2023-03-04T15:40:32;6.60;99.90
64843;DHT22;51310;52.198;5.422;2023-03-04T15:43:02;6.60;99.90
64843;DHT22;51310;52.198;5.422;2023-03-04T15:45:31;6.50;99.90
64843;DHT22;51310;52.198;5.422;2023-03-04T15:48:07;6.50;99.90
64843;DHT22;51310;52.198;5.422;2023-03-04T15:50:37;6.50;99.90
64843;DHT22;51310;52.198;5.422;2023-03-04T15:53:35;6.50;99.90
64843;DHT22;51310;52.198;5.422;2023-03-04T15:56:06;6.50;99.90
64843;DHT22;51310;52.198;5.422;2023-03-04T15:58:33;6.50;99.90
64843;DHT22;51310;52.198;5.422;2023-03-04T16:00:59;6.50;99.90
64843;DHT22;51310;52.198;5.422;2023-03-04T16:03:25;6.50;99.90
64843;DHT22;51310;52.198;5.422;2023-03-04T16:05:51;6.40;99.90
64843;DHT22;51310;52.198;5.422;2023-03-04T16:08:21;6.30;99.90
64843;DHT22;51310;52.198;5.422;2023-03-04T16:10:49;6.30;99.90
64843;DHT22;51310;52.198;5.422;2023-03-04T16:13:20;6.20;99.90
64843;DHT22;51310;52.198;5.422;2023-03-04T16:15:48;6.20;99.90
64843;DHT22;51310;52.198;5.422;2023-03-04T16:18:15;6.10;99.90
64843;DHT22;51310;52.198;5.422;2023-03-04T16:20:44;6.10;99.90
64843;DHT22;51310;52.198;5.422;2023-03-04T16:23:14;6.00;99.90
64843;DHT22;51310;52.198;5.422;2023-03-04T16:25:44;6.00;99.90
64843;DHT22;51310;52.198;5.422;2023-03-04T16:28:12;5.90;99.90
64843;DHT22;51310;52.198;5.422;2023-03-04T16:30:39;5.90;99.90
64843;DHT22;51310;52.198;5.422;2023-03-04T16:33:06;5.90;99.90
64843;DHT22;51310;52.198;5.422;2023-03-04T16:35:34;5.90;99.90
64843;DHT22;51310;52.198;5.422;2023-03-04T16:38:02;5.90;99.90
64843;DHT22;51310;52.198;5.422;2023-03-04T16:40:30;5.90;99.90
64843;DHT22;51310;52.198;5.422;2023-03-04T16:42:56;5.80;99.90
64843;DHT22;51310;52.198;5.422;2023-03-04T16:45:25;5.80;99.90
64843;DHT22;51310;52.198;5.422;2023-03-04T16:47:54;5.70;99.90
64843;DHT22;51310;52.198;5.422;2023-03-04T16:50:22;5.70;99.90
64843;DHT22;51310;52.198;5.422;2023-03-04T16:52:53;5.70;99.90
64843;DHT22;51310;52.198;5.422;2023-03-04T16:55:25;5.70;99.90
64843;DHT22;51310;52.198;5.422;2023-03-04T16:57:53;5.70;99.90
64843;DHT22;51310;52.198;5.422;2023-03-04T17:00:21;5.70;99.90
64843;DHT22;51310;52.198;5.422;2023-03-04T17:02:58;5.70;99.90
64843;DHT22;51310;52.198;5.422;2023-03-04T17:05:29;5.60;99.90
64843;DHT22;51310;52.198;5.422;2023-03-04T17:07:56;5.50;99.90
64843;DHT22;51310;52.198;5.422;2023-03-04T17:10:22;5.50;99.90
64843;DHT22;51310;52.198;5.422;2023-03-04T17:12:49;5.40;99.90
64843;DHT22;51310;52.198;5.422;2023-03-04T17:15:16;5.30;99.90
64843;DHT22;51310;52.198;5.422;2023-03-04T17:17:42;5.30;99.90
64843;DHT22;51310;52.198;5.422;2023-03-04T17:20:11;5.20;99.90
64843;DHT22;51310;52.198;5.422;2023-03-04T17:22:39;5.10;99.90
64843;DHT22;51310;52.198;5.422;2023-03-04T17:25:05;5.00;99.90
64843;DHT22;51310;52.198;5.422;2023-03-04T17:27:31;5.00;99.90
64843;DHT22;51310;52.198;5.422;2023-03-04T17:29:57;4.90;99.90
64843;DHT22;51310;52.198;5.422;2023-03-04T17:32:24;5.00;99.90
64843;DHT22;51310;52.198;5.422;2023-03-04T17:34:53;4.90;99.90
64843;DHT22;51310;52.198;5.422;2023-03-04T17:37:20;4.80;99.90
64843;DHT22;51310;52.198;5.422;2023-03-04T17:39:46;4.70;99.90
64843;DHT22;51310;52.198;5.422;2023-03-04T17:42:11;4.70;99.90
64843;DHT22;51310;52.198;5.422;2023-03-04T17:44:38;4.70;99.90